createdAt,value
2018-04-17T00:00:18.031Z,1.10
2018-04-17T00:02:48.331Z,1.07
2018-04-17T00:05:18.674Z,1.07
2018-04-17T00:07:49.027Z,0.80
2018-04-17T00:10:20.232Z,1.20
2018-04-17T00:12:50.635Z,0.60
2018-04-17T00:15:21.079Z,1.17
2018-04-17T00:17:51.659Z,0.87
2018-04-17T00:20:22.763Z,0.90
2018-04-17T00:22:53.184Z,0.90
2018-04-17T00:25:23.475Z,0.97
2018-04-17T00:27:53.877Z,0.80
2018-04-17T00:30:24.958Z,1.03
2018-04-17T00:32:55.314Z,1.00
2018-04-17T00:35:25.759Z,1.00
2018-04-17T00:37:56.110Z,0.90
2018-04-17T00:40:27.198Z,1.10
2018-04-17T00:42:57.829Z,0.70
2018-04-17T00:45:28.194Z,0.87
2018-04-17T00:47:59.467Z,0.90
2018-04-17T00:50:29.830Z,0.80
2018-04-17T00:53:00.398Z,0.80
2018-04-17T00:55:31.578Z,0.93
2018-04-17T00:58:02.047Z,1.00
2018-04-17T01:00:32.443Z,1.00
2018-04-17T01:03:02.759Z,0.60
2018-04-17T01:05:33.287Z,0.80
2018-04-17T01:08:03.618Z,0.80
2018-04-17T01:10:34.052Z,0.97
2018-04-17T01:13:04.443Z,0.80
2018-04-17T01:15:35.698Z,1.63
2018-04-17T01:18:06.546Z,0.60
2018-04-17T01:20:37.053Z,0.90
2018-04-17T01:23:07.450Z,0.80
2018-04-17T01:25:37.758Z,0.80
2018-04-17T01:28:08.341Z,0.60
2018-04-17T01:30:39.598Z,0.87
2018-04-17T01:33:10.102Z,0.70
2018-04-17T01:35:41.239Z,0.90
2018-04-17T01:38:11.602Z,0.70
2018-04-17T01:40:41.986Z,0.80
2018-04-17T01:43:13.557Z,0.80
2018-04-17T01:45:44.735Z,0.73
2018-04-17T01:48:15.118Z,0.67
2018-04-17T01:50:45.474Z,0.70
2018-04-17T01:53:15.859Z,0.77
2018-04-17T01:55:46.222Z,0.80
2018-04-17T01:58:16.539Z,0.60
2018-04-17T02:00:47.624Z,0.70
2018-04-17T02:03:17.992Z,0.70
2018-04-17T02:05:48.350Z,0.80
2018-04-17T02:08:18.655Z,0.73
2018-04-17T02:10:49.710Z,0.70
2018-04-17T02:13:20.058Z,0.70
2018-04-17T02:15:50.351Z,0.83
2018-04-17T02:18:21.440Z,0.83
2018-04-17T02:20:51.840Z,0.60
2018-04-17T02:23:22.181Z,0.80
2018-04-17T02:25:52.514Z,0.77
2018-04-17T02:31:04.147Z,1.00
2018-04-17T02:33:34.597Z,0.73
2018-04-17T02:36:05.737Z,0.80
2018-04-17T02:38:36.859Z,0.80
2018-04-17T02:41:07.147Z,0.80
2018-04-17T02:43:38.023Z,0.57
2018-04-17T02:46:08.521Z,0.80
2018-04-17T02:48:38.879Z,0.70
2018-04-17T02:51:09.242Z,0.80
2018-04-17T02:53:39.549Z,0.70
2018-04-17T02:56:09.898Z,0.67
2018-04-17T02:58:40.204Z,0.60
2018-04-17T03:01:11.327Z,0.63
2018-04-17T03:03:41.655Z,0.70
2018-04-17T03:06:12.022Z,0.97
2018-04-17T03:08:42.643Z,0.70
2018-04-17T03:11:12.930Z,0.70
2018-04-17T03:13:43.233Z,0.80
2018-04-17T03:16:13.692Z,0.60
2018-04-17T03:18:44.831Z,0.83
2018-04-17T03:21:15.319Z,0.83
2018-04-17T03:23:45.688Z,0.70
2018-04-17T03:26:15.972Z,0.90
2018-04-17T03:28:46.307Z,0.70
2018-04-17T03:31:16.594Z,0.73
2018-04-17T03:33:46.990Z,0.80
2018-04-17T03:36:18.250Z,0.70
2018-04-17T03:38:49.418Z,0.80
2018-04-17T03:41:19.702Z,0.70
2018-04-17T03:43:50.313Z,0.70
2018-04-17T03:46:20.666Z,0.77
2018-04-17T03:48:51.829Z,0.77
2018-04-17T03:51:22.229Z,0.60
2018-04-17T03:53:52.578Z,0.73
2018-04-17T03:56:23.551Z,0.63
2018-04-17T03:58:53.850Z,0.80
2018-04-17T04:01:24.158Z,0.80
2018-04-17T04:03:55.224Z,0.90
2018-04-17T04:06:25.538Z,0.70
2018-04-17T04:08:55.937Z,0.90
2018-04-17T04:11:26.382Z,0.60
2018-04-17T04:13:56.747Z,0.77
2018-04-17T04:16:35.407Z,0.67
2018-04-17T04:19:15.966Z,0.73
2018-04-17T04:24:04.463Z,0.73
2018-04-17T04:26:35.072Z,0.70
2018-04-17T04:29:05.407Z,0.90
2018-04-17T04:31:36.537Z,0.70
2018-04-17T04:34:06.922Z,0.70
2018-04-17T04:36:37.257Z,0.80
2018-04-17T04:39:07.606Z,0.70
2018-04-17T04:41:37.958Z,0.83
2018-04-17T04:44:09.439Z,0.70
2018-04-17T04:46:39.766Z,0.80
2018-04-17T04:49:10.118Z,0.90
2018-04-17T04:51:40.465Z,0.77
2018-04-17T04:54:10.767Z,0.70
2018-04-17T04:56:41.062Z,0.70
2018-04-17T04:59:11.410Z,0.87
2018-04-17T05:01:41.726Z,0.70
2018-04-17T05:04:12.143Z,0.83
2018-04-17T05:06:42.423Z,0.80
2018-04-17T05:09:12.715Z,0.80
2018-04-17T05:11:43.258Z,0.83
2018-04-17T05:14:13.756Z,0.70
2018-04-17T05:16:44.067Z,0.80
2018-04-17T05:19:14.386Z,0.80
2018-04-17T05:21:44.688Z,0.77
2018-04-17T05:24:15.978Z,0.73
2018-04-17T05:26:46.303Z,0.90
2018-04-17T05:29:16.619Z,0.70
2018-04-17T05:31:46.902Z,0.73
2018-04-17T05:34:17.253Z,0.80
2018-04-17T05:36:47.586Z,0.70
2018-04-17T05:39:17.870Z,0.90
2018-04-17T05:41:48.966Z,0.63
2018-04-17T05:44:19.672Z,0.80
2018-04-17T05:46:51.456Z,0.73
2018-04-17T05:49:22.098Z,0.80
2018-04-17T05:51:52.455Z,0.80
2018-04-17T05:54:22.831Z,0.80
2018-04-17T05:56:53.191Z,0.83
2018-04-17T05:59:23.610Z,0.93
2018-04-17T06:01:53.966Z,0.80
2018-04-17T06:04:24.298Z,0.77
2018-04-17T06:06:54.670Z,0.80
2018-04-17T06:09:24.998Z,0.77
2018-04-17T06:11:55.418Z,0.70
2018-04-17T06:14:25.765Z,0.80
2018-04-17T06:16:56.085Z,0.70
2018-04-17T06:19:26.386Z,0.80
2018-04-17T06:21:56.686Z,0.80
2018-04-17T06:24:27.011Z,0.83
2018-04-17T06:26:57.327Z,0.80
2018-04-17T06:29:27.629Z,1.00
2018-04-17T06:31:57.938Z,0.70
2018-04-17T06:34:28.266Z,0.70
2018-04-17T06:36:58.594Z,0.90
2018-04-17T06:39:28.882Z,0.90
2018-04-17T06:41:59.964Z,0.80
2018-04-17T06:44:30.678Z,0.77
2018-04-17T06:47:00.964Z,0.70
2018-04-17T06:49:32.039Z,0.70
2018-04-17T06:52:02.348Z,0.70
2018-04-17T06:54:34.462Z,0.83
2018-04-17T06:57:04.761Z,0.70
2018-04-17T06:59:35.714Z,0.80
2018-04-17T07:02:06.038Z,0.70
2018-04-17T07:04:36.339Z,0.80
2018-04-17T07:07:06.670Z,0.80
2018-04-17T07:09:36.995Z,0.90
2018-04-17T07:12:07.389Z,0.80
2018-04-17T07:14:38.472Z,0.80
2018-04-17T07:17:08.798Z,0.93
2018-04-17T07:19:39.122Z,0.80
2018-04-17T07:22:09.430Z,0.90
2018-04-17T07:24:39.707Z,0.90
2018-04-17T07:27:10.011Z,0.70
2018-04-17T07:29:40.350Z,0.77
2018-04-17T07:32:10.745Z,0.80
2018-04-17T07:34:41.082Z,0.70
2018-04-17T07:37:11.439Z,0.70
2018-04-17T07:39:41.764Z,0.70
2018-04-17T07:42:12.213Z,0.90
2018-04-17T07:44:42.814Z,0.80
2018-04-17T07:47:21.498Z,0.87
2018-04-17T07:49:51.854Z,0.80
2018-04-17T07:52:22.211Z,0.70
2018-04-17T07:54:52.508Z,0.70
2018-04-17T07:57:23.586Z,0.80
2018-04-17T07:59:53.871Z,0.70
2018-04-17T08:02:24.220Z,0.83
2018-04-17T08:04:54.630Z,0.90
2018-04-17T08:07:25.698Z,0.80
2018-04-17T08:09:56.043Z,0.80
2018-04-17T08:12:27.154Z,0.77
2018-04-17T08:14:57.474Z,0.70
2018-04-17T08:17:27.786Z,0.90
2018-04-17T08:19:58.118Z,0.60
2018-04-17T08:22:28.434Z,0.67
2018-04-17T08:24:58.746Z,0.70
2018-04-17T08:27:29.805Z,0.80
2018-04-17T08:30:00.102Z,0.80
2018-04-17T08:32:30.430Z,0.80
2018-04-17T08:35:00.765Z,0.90
2018-04-17T08:37:32.083Z,0.70
2018-04-17T08:40:03.903Z,0.93
2018-04-17T08:42:34.251Z,0.70
2018-04-17T08:45:04.874Z,0.90
2018-04-17T08:47:35.238Z,0.80
2018-04-17T08:50:05.722Z,0.70
2018-04-17T08:52:36.022Z,0.80
2018-04-17T08:55:06.374Z,0.63
2018-04-17T08:57:36.663Z,0.90
2018-04-17T09:00:07.142Z,0.80
2018-04-17T09:02:37.426Z,0.80
2018-04-17T09:05:07.818Z,0.70
2018-04-17T09:07:38.248Z,0.90
2018-04-17T09:10:08.526Z,0.67
2018-04-17T09:12:38.834Z,0.80
2018-04-17T09:15:09.240Z,0.90
2018-04-17T09:17:39.575Z,0.80
2018-04-17T09:20:09.879Z,0.70
2018-04-17T09:22:40.510Z,0.80
2018-04-17T09:25:10.830Z,0.80
2018-04-17T09:27:41.242Z,0.90
2018-04-17T09:30:13.202Z,0.77
2018-04-17T09:32:44.271Z,0.70
2018-04-17T09:35:14.569Z,0.70
2018-04-17T09:37:45.639Z,0.90
2018-04-17T09:40:15.946Z,0.80
2018-04-17T09:42:47.030Z,0.83
2018-04-17T09:45:17.714Z,1.10
2018-04-17T09:47:48.826Z,0.70
2018-04-17T09:50:19.100Z,0.87
2018-04-17T09:52:49.574Z,0.90
2018-04-17T09:55:19.852Z,0.80
2018-04-17T09:57:50.149Z,0.90
2018-04-17T10:00:20.854Z,0.90
2018-04-17T10:02:51.210Z,0.83
2018-04-17T10:05:21.498Z,1.10
2018-04-17T10:07:51.826Z,0.83
2018-04-17T10:10:22.150Z,0.77
2018-04-17T10:12:52.550Z,0.90
2018-04-17T10:15:22.881Z,0.90
2018-04-17T10:17:54.098Z,0.90
2018-04-17T10:20:25.174Z,0.90
2018-04-17T10:22:55.538Z,0.80
2018-04-17T10:25:26.631Z,0.90
2018-04-17T10:27:56.950Z,1.10
2018-04-17T10:30:27.286Z,0.83
2018-04-17T10:32:57.578Z,0.70
2018-04-17T10:35:28.654Z,0.90
2018-04-17T10:37:58.958Z,0.77
2018-04-17T10:40:29.385Z,0.83
2018-04-17T10:42:59.693Z,0.70
2018-04-17T10:45:31.053Z,1.20
2018-04-17T10:48:17.170Z,0.97
2018-04-17T10:51:02.594Z,1.13
2018-04-17T10:53:47.918Z,0.80
2018-04-17T10:56:33.382Z,0.70
2018-04-17T10:59:19.607Z,0.90
2018-04-17T11:14:55.958Z,1.00
2018-04-17T11:17:41.258Z,0.80
2018-04-17T11:20:26.722Z,0.70
2018-04-17T11:36:06.055Z,1.10
2018-04-17T11:38:51.894Z,0.67
2018-04-17T11:41:38.096Z,0.80
2018-04-17T11:44:09.302Z,0.80
2018-04-17T11:46:40.038Z,1.03
2018-04-17T11:49:10.398Z,1.00
2018-04-17T11:51:41.537Z,0.73
2018-04-17T11:54:11.922Z,1.30
2018-04-17T11:56:42.327Z,0.83
2018-04-17T11:59:12.906Z,0.73
2018-04-17T12:01:43.294Z,0.90
2018-04-17T12:04:14.095Z,0.80
2018-04-17T12:06:45.390Z,0.93
2018-04-17T12:09:15.763Z,0.80
2018-04-17T12:11:46.181Z,0.90
2018-04-17T12:14:16.546Z,0.90
2018-04-17T12:16:46.914Z,0.80
2018-04-17T12:19:17.270Z,1.00
2018-04-17T12:21:48.408Z,0.73
2018-04-17T12:24:19.559Z,0.90
2018-04-17T12:26:50.737Z,0.90
2018-04-17T12:29:21.087Z,1.10
2018-04-17T12:31:51.525Z,0.97
2018-04-17T12:34:21.867Z,0.97
2018-04-17T12:36:52.286Z,0.80
2018-04-17T12:39:22.663Z,0.70
2018-04-17T12:41:53.947Z,0.80
2018-04-17T12:44:24.346Z,1.00
2018-04-17T12:46:55.034Z,0.90
2018-04-17T12:49:26.185Z,0.80
2018-04-17T12:51:57.351Z,0.80
2018-04-17T12:54:27.757Z,0.70
2018-04-17T12:56:58.977Z,0.80
2018-04-17T12:59:29.415Z,0.97
2018-04-17T13:01:59.844Z,0.73
2018-04-17T13:04:30.202Z,1.07
2018-04-17T13:07:00.596Z,1.33
2018-04-17T13:09:30.961Z,1.10
2018-04-17T13:12:01.326Z,0.90
2018-04-17T13:14:31.701Z,0.87
2018-04-17T13:17:02.114Z,0.80
2018-04-17T13:19:33.279Z,0.80
2018-04-17T13:22:03.748Z,0.90
2018-04-17T13:24:34.306Z,0.80
2018-04-17T13:27:04.771Z,0.77
2018-04-17T13:29:35.210Z,1.00
2018-04-17T13:32:05.599Z,0.80
2018-04-17T13:34:36.778Z,0.90
2018-04-17T13:37:07.151Z,0.90
2018-04-17T13:39:37.554Z,0.90
2018-04-17T13:42:08.046Z,0.90
2018-04-17T13:44:38.417Z,0.80
2018-04-17T13:47:09.232Z,0.90
2018-04-17T13:49:39.685Z,0.83
2018-04-17T13:52:10.180Z,0.83
2018-04-17T13:54:40.579Z,1.00
2018-04-17T13:57:11.006Z,0.90
2018-04-17T13:59:43.852Z,0.90
2018-04-17T14:02:14.296Z,0.83
2018-04-17T14:04:44.684Z,0.80
2018-04-17T14:07:15.125Z,0.90
2018-04-17T14:09:45.498Z,0.80
2018-04-17T14:12:17.238Z,0.90
2018-04-17T14:14:48.362Z,0.80
2018-04-17T14:17:18.831Z,0.80
2018-04-17T14:19:49.224Z,1.10
2018-04-17T14:22:19.619Z,1.00
2018-04-17T14:24:50.030Z,0.90
2018-04-17T14:27:20.599Z,0.90
2018-04-17T14:29:50.917Z,0.93
2018-04-17T14:32:21.361Z,0.83
2018-04-17T14:34:56.591Z,0.90
2018-04-17T14:37:27.232Z,0.83
2018-04-17T14:39:57.779Z,0.90
2018-04-17T14:42:28.894Z,0.70
2018-04-17T14:44:59.166Z,0.90
2018-04-17T14:47:30.012Z,0.90
2018-04-17T14:50:00.354Z,0.90
2018-04-17T14:52:30.714Z,0.93
2018-04-17T14:55:01.065Z,0.80
2018-04-17T14:57:33.176Z,1.00
2018-04-17T15:00:03.545Z,1.83
2018-04-17T15:02:33.936Z,1.00
2018-04-17T15:05:04.293Z,0.90
2018-04-17T15:07:34.829Z,3.20
2018-04-17T15:10:05.964Z,1.00
2018-04-17T15:12:37.349Z,1.07
2018-04-17T15:15:07.803Z,1.23
2018-04-17T15:17:38.212Z,1.17
2018-04-17T15:20:08.547Z,2.10
2018-04-17T15:22:38.875Z,1.37
2018-04-17T15:25:09.220Z,1.10
2018-04-17T15:27:39.614Z,1.30
2018-04-17T15:30:09.940Z,1.40
2018-04-17T15:32:40.300Z,1.40
2018-04-17T15:35:10.663Z,1.50
2018-04-17T15:37:41.930Z,1.73
2018-04-17T15:40:12.242Z,2.33
2018-04-17T15:42:43.380Z,1.37
2018-04-17T15:45:14.455Z,1.60
2018-04-17T15:47:45.140Z,1.53
2018-04-17T15:50:15.574Z,1.30
2018-04-17T15:52:47.394Z,1.60
2018-04-17T15:55:17.756Z,1.77
2018-04-17T15:57:48.155Z,1.57
2018-04-17T16:00:18.487Z,1.57
2018-04-17T16:02:48.832Z,1.43
2018-04-17T16:05:19.723Z,1.10
2018-04-17T16:07:50.146Z,1.37
2018-04-17T16:10:20.567Z,1.23
2018-04-17T16:12:50.964Z,2.10
2018-04-17T16:15:22.122Z,2.63
2018-04-17T16:17:52.487Z,1.83
2018-04-17T16:20:23.046Z,1.27
2018-04-17T16:22:54.258Z,1.20
2018-04-17T16:25:24.631Z,1.60
2018-04-17T16:27:55.761Z,1.50
2018-04-17T16:30:26.406Z,1.30
2018-04-17T16:32:57.584Z,1.80
2018-04-17T16:35:27.955Z,1.53
2018-04-17T16:37:58.311Z,1.63
2018-04-17T16:40:29.414Z,1.67
2018-04-17T16:42:59.754Z,1.80
2018-04-17T16:45:30.074Z,1.47
2018-04-17T16:48:00.711Z,1.10
2018-04-17T16:50:32.144Z,1.30
2018-04-17T16:53:02.499Z,1.33
2018-04-17T16:55:33.693Z,1.33
2018-04-17T16:58:04.096Z,1.40
2018-04-17T17:00:35.215Z,1.53
2018-04-17T17:03:05.538Z,1.40
2018-04-17T17:05:35.866Z,1.00
2018-04-17T17:08:06.246Z,1.40
2018-04-17T17:10:36.778Z,1.30
2018-04-17T17:13:08.696Z,1.40
2018-04-17T17:15:41.823Z,1.60
2018-04-17T17:18:20.870Z,1.60
2018-04-17T17:20:52.035Z,1.60
2018-04-17T17:23:22.420Z,1.40
2018-04-17T17:25:53.856Z,1.73
2018-04-17T17:28:24.339Z,1.60
2018-04-17T17:30:54.756Z,1.93
2018-04-17T17:33:25.213Z,2.13
2018-04-17T17:35:55.899Z,1.37
2018-04-17T17:38:26.387Z,1.40
2018-04-17T17:40:57.477Z,1.97
2018-04-17T17:43:27.974Z,1.63
2018-04-17T17:45:58.327Z,1.77
2018-04-17T17:48:28.939Z,1.97
2018-04-17T17:50:59.267Z,1.83
2018-04-17T17:53:29.605Z,2.13
2018-04-17T17:55:59.990Z,1.73
2018-04-17T17:58:31.178Z,2.00
2018-04-17T18:01:02.572Z,1.60
2018-04-17T18:03:33.713Z,1.93
2018-04-17T18:06:04.870Z,1.80
2018-04-17T18:08:35.277Z,1.87
2018-04-17T18:11:05.611Z,1.50
2018-04-17T18:13:36.715Z,1.47
2018-04-17T18:16:07.118Z,1.80
2018-04-17T18:18:37.576Z,2.03
2018-04-17T18:21:07.851Z,1.63
2018-04-17T18:23:38.190Z,1.90
